sensor_id;sensor_type;location;lat;lon;timestamp;P1;durP1;ratioP1;P2;durP2;ratioP2
30472;SDS011;17263;48.160;11.452;2022-08-03T00:00:41;3.40;;;2.00;;
30472;SDS011;17263;48.160;11.452;2022-08-03T00:03:07;3.27;;;2.10;;
30472;SDS011;17263;48.160;11.452;2022-08-03T00:05:33;3.20;;;1.90;;
30472;SDS011;17263;48.160;11.452;2022-08-03T00:08:00;2.97;;;1.70;;
30472;SDS011;17263;48.160;11.452;2022-08-03T00:10:26;2.40;;;1.83;;
30472;SDS011;17263;48.160;11.452;2022-08-03T00:12:52;1.90;;;1.50;;
30472;SDS011;17263;48.160;11.452;2022-08-03T00:15:18;4.27;;;2.20;;
30472;SDS011;17263;48.160;11.452;2022-08-03T00:17:45;2.97;;;1.70;;
30472;SDS011;17263;48.160;11.452;2022-08-03T00:20:11;2.53;;;2.03;;
30472;SDS011;17263;48.160;11.452;2022-08-03T00:22:37;2.77;;;1.90;;
30472;SDS011;17263;48.160;11.452;2022-08-03T00:25:03;4.07;;;1.80;;
30472;SDS011;17263;48.160;11.452;2022-08-03T00:27:29;1.90;;;1.80;;
30472;SDS011;17263;48.160;11.452;2022-08-03T00:29:55;2.20;;;1.60;;
30472;SDS011;17263;48.160;11.452;2022-08-03T00:32:21;3.73;;;1.93;;
30472;SDS011;17263;48.160;11.452;2022-08-03T00:34:47;2.43;;;1.93;;
30472;SDS011;17263;48.160;11.452;2022-08-03T00:37:13;2.80;;;2.00;;
30472;SDS011;17263;48.160;11.452;2022-08-03T00:39:40;3.63;;;1.70;;
30472;SDS011;17263;48.160;11.452;2022-08-03T00:42:07;2.30;;;1.70;;
30472;SDS011;17263;48.160;11.452;2022-08-03T00:44:43;2.10;;;1.90;;
30472;SDS011;17263;48.160;11.452;2022-08-03T00:47:10;3.00;;;1.80;;
30472;SDS011;17263;48.160;11.452;2022-08-03T00:49:36;4.10;;;1.97;;
30472;SDS011;17263;48.160;11.452;2022-08-03T00:52:04;2.07;;;1.50;;
30472;SDS011;17263;48.160;11.452;2022-08-03T00:54:32;2.27;;;1.80;;
30472;SDS011;17263;48.160;11.452;2022-08-03T00:57:00;2.57;;;1.70;;
30472;SDS011;17263;48.160;11.452;2022-08-03T00:59:26;3.57;;;1.80;;
30472;SDS011;17263;48.160;11.452;2022-08-03T01:01:53;2.07;;;1.80;;
30472;SDS011;17263;48.160;11.452;2022-08-03T01:04:19;1.90;;;1.50;;
30472;SDS011;17263;48.160;11.452;2022-08-03T01:06:56;2.17;;;1.73;;
30472;SDS011;17263;48.160;11.452;2022-08-03T01:09:41;2.07;;;1.50;;
30472;SDS011;17263;48.160;11.452;2022-08-03T01:12:34;2.63;;;1.90;;
30472;SDS011;17263;48.160;11.452;2022-08-03T01:17:58;2.23;;;1.50;;
30472;SDS011;17263;48.160;11.452;2022-08-03T01:20:31;2.13;;;1.90;;
30472;SDS011;17263;48.160;11.452;2022-08-03T01:23:02;2.07;;;1.60;;
30472;SDS011;17263;48.160;11.452;2022-08-03T01:30:48;1.90;;;1.70;;
30472;SDS011;17263;48.160;11.452;2022-08-03T01:33:18;2.43;;;1.80;;
30472;SDS011;17263;48.160;11.452;2022-08-03T01:35:58;1.70;;;1.50;;
30472;SDS011;17263;48.160;11.452;2022-08-03T01:38:34;2.30;;;1.90;;
30472;SDS011;17263;48.160;11.452;2022-08-03T01:41:03;1.70;;;1.60;;
30472;SDS011;17263;48.160;11.452;2022-08-03T01:43:32;1.97;;;1.40;;
30472;SDS011;17263;48.160;11.452;2022-08-03T01:45:59;2.47;;;1.80;;
30472;SDS011;17263;48.160;11.452;2022-08-03T01:48:27;3.00;;;2.00;;
30472;SDS011;17263;48.160;11.452;2022-08-03T01:50:54;1.90;;;1.70;;
30472;SDS011;17263;48.160;11.452;2022-08-03T01:53:21;2.23;;;1.80;;
30472;SDS011;17263;48.160;11.452;2022-08-03T01:55:51;2.00;;;1.80;;
30472;SDS011;17263;48.160;11.452;2022-08-03T01:58:20;1.90;;;1.63;;
30472;SDS011;17263;48.160;11.452;2022-08-03T02:00:48;1.77;;;1.50;;
30472;SDS011;17263;48.160;11.452;2022-08-03T02:03:15;2.20;;;1.73;;
30472;SDS011;17263;48.160;11.452;2022-08-03T02:05:44;2.60;;;1.87;;
30472;SDS011;17263;48.160;11.452;2022-08-03T02:08:11;1.83;;;1.70;;
30472;SDS011;17263;48.160;11.452;2022-08-03T02:10:40;2.80;;;1.83;;
30472;SDS011;17263;48.160;11.452;2022-08-03T02:13:08;2.73;;;1.70;;
30472;SDS011;17263;48.160;11.452;2022-08-03T02:15:36;2.20;;;1.80;;
30472;SDS011;17263;48.160;11.452;2022-08-03T02:18:04;1.93;;;1.77;;
30472;SDS011;17263;48.160;11.452;2022-08-03T02:20:32;2.77;;;1.83;;
30472;SDS011;17263;48.160;11.452;2022-08-03T02:23:00;4.70;;;1.90;;
30472;SDS011;17263;48.160;11.452;2022-08-03T02:25:27;3.67;;;1.80;;
30472;SDS011;17263;48.160;11.452;2022-08-03T02:27:55;3.03;;;1.90;;
30472;SDS011;17263;48.160;11.452;2022-08-03T02:30:26;2.50;;;1.87;;
30472;SDS011;17263;48.160;11.452;2022-08-03T02:32:57;2.20;;;1.90;;
30472;SDS011;17263;48.160;11.452;2022-08-03T02:35:25;1.70;;;1.60;;
30472;SDS011;17263;48.160;11.452;2022-08-03T02:37:57;2.50;;;1.90;;
30472;SDS011;17263;48.160;11.452;2022-08-03T02:40:28;3.27;;;1.90;;
30472;SDS011;17263;48.160;11.452;2022-08-03T02:43:00;2.77;;;1.70;;
30472;SDS011;17263;48.160;11.452;2022-08-03T02:45:29;2.37;;;1.80;;
30472;SDS011;17263;48.160;11.452;2022-08-03T02:47:58;2.73;;;1.60;;
30472;SDS011;17263;48.160;11.452;2022-08-03T02:50:27;2.83;;;1.90;;
30472;SDS011;17263;48.160;11.452;2022-08-03T02:52:55;3.17;;;1.90;;
30472;SDS011;17263;48.160;11.452;2022-08-03T02:55:23;2.20;;;2.00;;
30472;SDS011;17263;48.160;11.452;2022-08-03T02:57:50;2.03;;;1.70;;
30472;SDS011;17263;48.160;11.452;2022-08-03T03:00:18;2.80;;;2.00;;
30472;SDS011;17263;48.160;11.452;2022-08-03T03:02:44;3.67;;;1.97;;
30472;SDS011;17263;48.160;11.452;2022-08-03T03:05:11;2.00;;;1.80;;
30472;SDS011;17263;48.160;11.452;2022-08-03T03:07:39;2.10;;;1.73;;
30472;SDS011;17263;48.160;11.452;2022-08-03T03:10:07;2.40;;;1.93;;
30472;SDS011;17263;48.160;11.452;2022-08-03T03:12:34;2.97;;;1.70;;
30472;SDS011;17263;48.160;11.452;2022-08-03T03:15:03;2.07;;;1.60;;
30472;SDS011;17263;48.160;11.452;2022-08-03T03:17:31;2.17;;;1.93;;
30472;SDS011;17263;48.160;11.452;2022-08-03T03:19:59;2.60;;;2.40;;
30472;SDS011;17263;48.160;11.452;2022-08-03T03:22:25;3.30;;;1.90;;
30472;SDS011;17263;48.160;11.452;2022-08-03T03:24:52;2.23;;;1.80;;
30472;SDS011;17263;48.160;11.452;2022-08-03T03:27:20;2.90;;;2.20;;
30472;SDS011;17263;48.160;11.452;2022-08-03T03:29:47;4.03;;;2.10;;
30472;SDS011;17263;48.160;11.452;2022-08-03T03:32:13;2.03;;;1.87;;
30472;SDS011;17263;48.160;11.452;2022-08-03T03:34:39;3.30;;;1.80;;
30472;SDS011;17263;48.160;11.452;2022-08-03T03:37:06;2.20;;;2.00;;
30472;SDS011;17263;48.160;11.452;2022-08-03T03:39:33;2.17;;;1.90;;
30472;SDS011;17263;48.160;11.452;2022-08-03T03:42:01;2.60;;;1.87;;
30472;SDS011;17263;48.160;11.452;2022-08-03T03:44:28;2.20;;;2.00;;
30472;SDS011;17263;48.160;11.452;2022-08-03T03:46:57;2.63;;;2.00;;
30472;SDS011;17263;48.160;11.452;2022-08-03T03:49:23;2.27;;;2.07;;
30472;SDS011;17263;48.160;11.452;2022-08-03T03:51:53;5.07;;;2.50;;
30472;SDS011;17263;48.160;11.452;2022-08-03T03:54:20;2.40;;;2.00;;
30472;SDS011;17263;48.160;11.452;2022-08-03T03:56:46;3.13;;;2.10;;
30472;SDS011;17263;48.160;11.452;2022-08-03T03:59:12;2.17;;;1.97;;
30472;SDS011;17263;48.160;11.452;2022-08-03T04:01:38;1.90;;;1.70;;
30472;SDS011;17263;48.160;11.452;2022-08-03T04:04:04;2.07;;;1.80;;
30472;SDS011;17263;48.160;11.452;2022-08-03T04:06:49;4.57;;;2.00;;
30472;SDS011;17263;48.160;11.452;2022-08-03T04:09:34;2.00;;;1.80;;
30472;SDS011;17263;48.160;11.452;2022-08-03T04:12:21;2.23;;;2.00;;
30472;SDS011;17263;48.160;11.452;2022-08-03T04:14:50;2.63;;;1.97;;
30472;SDS011;17263;48.160;11.452;2022-08-03T04:17:21;3.17;;;2.00;;
30472;SDS011;17263;48.160;11.452;2022-08-03T04:19:51;2.27;;;2.07;;
30472;SDS011;17263;48.160;11.452;2022-08-03T04:22:21;2.23;;;2.03;;
30472;SDS011;17263;48.160;11.452;2022-08-03T04:24:54;2.27;;;2.07;;
30472;SDS011;17263;48.160;11.452;2022-08-03T04:27:26;2.47;;;2.07;;
30472;SDS011;17263;48.160;11.452;2022-08-03T04:29:56;3.47;;;1.70;;
30472;SDS011;17263;48.160;11.452;2022-08-03T04:32:23;2.17;;;1.97;;
30472;SDS011;17263;48.160;11.452;2022-08-03T04:34:53;2.40;;;1.77;;
30472;SDS011;17263;48.160;11.452;2022-08-03T04:37:29;1.67;;;1.57;;
30472;SDS011;17263;48.160;11.452;2022-08-03T04:40:08;2.10;;;1.90;;
30472;SDS011;17263;48.160;11.452;2022-08-03T04:42:37;2.00;;;1.80;;
30472;SDS011;17263;48.160;11.452;2022-08-03T04:45:05;2.13;;;1.90;;
30472;SDS011;17263;48.160;11.452;2022-08-03T04:47:32;2.50;;;1.93;;
30472;SDS011;17263;48.160;11.452;2022-08-03T04:50:00;3.83;;;1.93;;
30472;SDS011;17263;48.160;11.452;2022-08-03T04:52:27;4.13;;;2.00;;
30472;SDS011;17263;48.160;11.452;2022-08-03T04:54:53;3.10;;;2.00;;
30472;SDS011;17263;48.160;11.452;2022-08-03T04:57:19;4.03;;;1.73;;
30472;SDS011;17263;48.160;11.452;2022-08-03T04:59:45;2.47;;;1.90;;
30472;SDS011;17263;48.160;11.452;2022-08-03T05:02:13;3.63;;;1.70;;
30472;SDS011;17263;48.160;11.452;2022-08-03T05:04:40;2.43;;;1.80;;
30472;SDS011;17263;48.160;11.452;2022-08-03T05:07:11;2.50;;;1.73;;
30472;SDS011;17263;48.160;11.452;2022-08-03T05:09:38;2.70;;;1.77;;
30472;SDS011;17263;48.160;11.452;2022-08-03T05:12:04;4.40;;;1.73;;
30472;SDS011;17263;48.160;11.452;2022-08-03T05:14:34;1.97;;;1.80;;
30472;SDS011;17263;48.160;11.452;2022-08-03T05:17:04;2.60;;;1.57;;
30472;SDS011;17263;48.160;11.452;2022-08-03T05:19:30;1.73;;;1.63;;
30472;SDS011;17263;48.160;11.452;2022-08-03T05:21:57;1.50;;;1.40;;
30472;SDS011;17263;48.160;11.452;2022-08-03T05:24:23;1.63;;;1.52;;
30472;SDS011;17263;48.160;11.452;2022-08-03T05:26:49;1.80;;;1.70;;
30472;SDS011;17263;48.160;11.452;2022-08-03T05:29:15;1.67;;;1.40;;
30472;SDS011;17263;48.160;11.452;2022-08-03T05:31:41;1.55;;;1.40;;
30472;SDS011;17263;48.160;11.452;2022-08-03T05:34:07;3.15;;;1.67;;
30472;SDS011;17263;48.160;11.452;2022-08-03T05:36:33;2.33;;;1.70;;
30472;SDS011;17263;48.160;11.452;2022-08-03T05:38:59;1.88;;;1.60;;
30472;SDS011;17263;48.160;11.452;2022-08-03T05:41:25;2.53;;;1.52;;
30472;SDS011;17263;48.160;11.452;2022-08-03T05:43:51;2.05;;;1.60;;
30472;SDS011;17263;48.160;11.452;2022-08-03T05:46:18;1.83;;;1.52;;
30472;SDS011;17263;48.160;11.452;2022-08-03T05:48:45;1.70;;;1.60;;
30472;SDS011;17263;48.160;11.452;2022-08-03T05:51:11;1.67;;;1.45;;
30472;SDS011;17263;48.160;11.452;2022-08-03T05:53:41;1.45;;;1.35;;
30472;SDS011;17263;48.160;11.452;2022-08-03T05:56:08;3.65;;;1.80;;
30472;SDS011;17263;48.160;11.452;2022-08-03T05:58:34;2.42;;;1.65;;
30472;SDS011;17263;48.160;11.452;2022-08-03T06:01:00;2.90;;;1.60;;
30472;SDS011;17263;48.160;11.452;2022-08-03T06:03:26;3.40;;;1.38;;
30472;SDS011;17263;48.160;11.452;2022-08-03T06:05:53;1.83;;;1.60;;
30472;SDS011;17263;48.160;11.452;2022-08-03T06:08:21;5.68;;;1.90;;
30472;SDS011;17263;48.160;11.452;2022-08-03T06:10:48;2.70;;;2.30;;
30472;SDS011;17263;48.160;11.452;2022-08-03T06:13:14;2.97;;;1.70;;
30472;SDS011;17263;48.160;11.452;2022-08-03T06:15:40;2.00;;;1.60;;
30472;SDS011;17263;48.160;11.452;2022-08-03T06:18:06;1.63;;;1.40;;
30472;SDS011;17263;48.160;11.452;2022-08-03T06:20:32;3.58;;;1.52;;
30472;SDS011;17263;48.160;11.452;2022-08-03T06:22:59;1.67;;;1.40;;
30472;SDS011;17263;48.160;11.452;2022-08-03T06:25:25;3.25;;;1.80;;
30472;SDS011;17263;48.160;11.452;2022-08-03T06:27:51;1.83;;;1.65;;
30472;SDS011;17263;48.160;11.452;2022-08-03T06:30:17;2.35;;;1.80;;
30472;SDS011;17263;48.160;11.452;2022-08-03T06:32:43;4.65;;;1.73;;
30472;SDS011;17263;48.160;11.452;2022-08-03T06:35:09;1.92;;;1.70;;
30472;SDS011;17263;48.160;11.452;2022-08-03T06:37:45;2.58;;;1.80;;
30472;SDS011;17263;48.160;11.452;2022-08-03T06:40:13;3.17;;;1.83;;
30472;SDS011;17263;48.160;11.452;2022-08-03T06:42:41;2.65;;;1.92;;
30472;SDS011;17263;48.160;11.452;2022-08-03T06:45:07;1.40;;;1.30;;
30472;SDS011;17263;48.160;11.452;2022-08-03T06:47:37;2.22;;;1.70;;
30472;SDS011;17263;48.160;11.452;2022-08-03T06:50:04;2.78;;;1.70;;
30472;SDS011;17263;48.160;11.452;2022-08-03T06:52:31;3.33;;;1.60;;
30472;SDS011;17263;48.160;11.452;2022-08-03T06:54:57;3.15;;;1.70;;
30472;SDS011;17263;48.160;11.452;2022-08-03T06:57:23;2.50;;;2.03;;
30472;SDS011;17263;48.160;11.452;2022-08-03T06:59:50;1.65;;;1.50;;
30472;SDS011;17263;48.160;11.452;2022-08-03T07:02:16;1.70;;;1.60;;
30472;SDS011;17263;48.160;11.452;2022-08-03T07:04:46;2.88;;;1.63;;
30472;SDS011;17263;48.160;11.452;2022-08-03T07:07:12;1.75;;;1.40;;
30472;SDS011;17263;48.160;11.452;2022-08-03T07:09:38;2.28;;;1.50;;
30472;SDS011;17263;48.160;11.452;2022-08-03T07:12:04;1.52;;;1.40;;
30472;SDS011;17263;48.160;11.452;2022-08-03T07:14:31;1.58;;;1.48;;
30472;SDS011;17263;48.160;11.452;2022-08-03T07:16:57;1.50;;;1.40;;
30472;SDS011;17263;48.160;11.452;2022-08-03T07:19:23;2.00;;;1.80;;
30472;SDS011;17263;48.160;11.452;2022-08-03T07:21:49;2.10;;;1.88;;
30472;SDS011;17263;48.160;11.452;2022-08-03T07:24:15;1.73;;;1.58;;
30472;SDS011;17263;48.160;11.452;2022-08-03T07:26:41;1.63;;;1.52;;
30472;SDS011;17263;48.160;11.452;2022-08-03T07:29:07;1.85;;;1.60;;
30472;SDS011;17263;48.160;11.452;2022-08-03T07:31:33;2.50;;;1.80;;
30472;SDS011;17263;48.160;11.452;2022-08-03T07:33:59;3.63;;;1.83;;
30472;SDS011;17263;48.160;11.452;2022-08-03T07:36:25;2.97;;;2.10;;
30472;SDS011;17263;48.160;11.452;2022-08-03T07:38:51;3.80;;;1.83;;
30472;SDS011;17263;48.160;11.452;2022-08-03T07:41:17;2.88;;;2.10;;
30472;SDS011;17263;48.160;11.452;2022-08-03T07:43:43;4.72;;;1.90;;
30472;SDS011;17263;48.160;11.452;2022-08-03T07:46:09;3.45;;;2.00;;
30472;SDS011;17263;48.160;11.452;2022-08-03T07:48:35;2.75;;;1.95;;
30472;SDS011;17263;48.160;11.452;2022-08-03T07:51:01;3.03;;;2.10;;
30472;SDS011;17263;48.160;11.452;2022-08-03T07:53:28;9.18;;;2.08;;
30472;SDS011;17263;48.160;11.452;2022-08-03T07:55:54;2.25;;;2.05;;
30472;SDS011;17263;48.160;11.452;2022-08-03T07:58:21;3.95;;;2.10;;
30472;SDS011;17263;48.160;11.452;2022-08-03T08:00:48;1.70;;;1.60;;
30472;SDS011;17263;48.160;11.452;2022-08-03T08:03:15;4.05;;;1.80;;
30472;SDS011;17263;48.160;11.452;2022-08-03T08:05:41;1.73;;;1.52;;
30472;SDS011;17263;48.160;11.452;2022-08-03T08:08:07;3.38;;;1.85;;
30472;SDS011;17263;48.160;11.452;2022-08-03T08:10:33;1.58;;;1.45;;
30472;SDS011;17263;48.160;11.452;2022-08-03T08:12:59;1.40;;;1.30;;
30472;SDS011;17263;48.160;11.452;2022-08-03T08:15:26;2.50;;;1.73;;
30472;SDS011;17263;48.160;11.452;2022-08-03T08:17:53;4.15;;;1.63;;
30472;SDS011;17263;48.160;11.452;2022-08-03T08:20:22;3.90;;;1.52;;
30472;SDS011;17263;48.160;11.452;2022-08-03T08:22:49;2.22;;;1.40;;
30472;SDS011;17263;48.160;11.452;2022-08-03T08:25:15;2.22;;;1.60;;
30472;SDS011;17263;48.160;11.452;2022-08-03T08:30:13;6.10;;;1.50;;
30472;SDS011;17263;48.160;11.452;2022-08-03T08:32:40;1.52;;;1.30;;
30472;SDS011;17263;48.160;11.452;2022-08-03T08:35:07;1.92;;;1.42;;
30472;SDS011;17263;48.160;11.452;2022-08-03T08:37:34;3.92;;;1.45;;
30472;SDS011;17263;48.160;11.452;2022-08-03T08:40:00;2.53;;;1.38;;
30472;SDS011;17263;48.160;11.452;2022-08-03T08:42:26;3.47;;;1.55;;
30472;SDS011;17263;48.160;11.452;2022-08-03T08:44:53;1.55;;;1.38;;
30472;SDS011;17263;48.160;11.452;2022-08-03T08:47:22;2.95;;;1.30;;
30472;SDS011;17263;48.160;11.452;2022-08-03T08:49:51;2.40;;;1.05;;
30472;SDS011;17263;48.160;11.452;2022-08-03T08:52:20;5.65;;;1.50;;
30472;SDS011;17263;48.160;11.452;2022-08-03T08:54:50;1.67;;;1.10;;
30472;SDS011;17263;48.160;11.452;2022-08-03T08:57:22;1.70;;;1.60;;
30472;SDS011;17263;48.160;11.452;2022-08-03T08:59:53;2.80;;;1.50;;
30472;SDS011;17263;48.160;11.452;2022-08-03T09:02:22;1.70;;;1.50;;
30472;SDS011;17263;48.160;11.452;2022-08-03T09:04:49;3.38;;;1.20;;
30472;SDS011;17263;48.160;11.452;2022-08-03T09:07:16;5.18;;;1.40;;
30472;SDS011;17263;48.160;11.452;2022-08-03T09:09:42;1.40;;;1.30;;
30472;SDS011;17263;48.160;11.452;2022-08-03T09:12:08;1.63;;;1.52;;
30472;SDS011;17263;48.160;11.452;2022-08-03T09:14:34;3.08;;;1.30;;
30472;SDS011;17263;48.160;11.452;2022-08-03T09:17:01;2.95;;;1.30;;
30472;SDS011;17263;48.160;11.452;2022-08-03T09:19:32;3.17;;;1.58;;
30472;SDS011;17263;48.160;11.452;2022-08-03T09:22:14;1.40;;;1.30;;
30472;SDS011;17263;48.160;11.452;2022-08-03T09:24:55;1.30;;;1.20;;
30472;SDS011;17263;48.160;11.452;2022-08-03T09:27:23;1.38;;;1.25;;
30472;SDS011;17263;48.160;11.452;2022-08-03T09:29:50;1.85;;;1.33;;
30472;SDS011;17263;48.160;11.452;2022-08-03T09:32:21;1.45;;;1.35;;
30472;SDS011;17263;48.160;11.452;2022-08-03T09:34:51;1.98;;;1.30;;
30472;SDS011;17263;48.160;11.452;2022-08-03T09:37:18;3.20;;;1.45;;
30472;SDS011;17263;48.160;11.452;2022-08-03T09:39:45;2.08;;;1.30;;
30472;SDS011;17263;48.160;11.452;2022-08-03T09:42:13;2.10;;;1.30;;
30472;SDS011;17263;48.160;11.452;2022-08-03T09:44:42;1.90;;;1.27;;
30472;SDS011;17263;48.160;11.452;2022-08-03T09:47:10;1.77;;;1.30;;
30472;SDS011;17263;48.160;11.452;2022-08-03T09:49:38;1.60;;;1.10;;
30472;SDS011;17263;48.160;11.452;2022-08-03T09:52:15;1.65;;;1.27;;
30472;SDS011;17263;48.160;11.452;2022-08-03T09:54:50;1.40;;;1.25;;
30472;SDS011;17263;48.160;11.452;2022-08-03T09:57:21;5.13;;;1.40;;
30472;SDS011;17263;48.160;11.452;2022-08-03T09:59:48;1.42;;;1.10;;
30472;SDS011;17263;48.160;11.452;2022-08-03T10:02:22;2.10;;;1.25;;
30472;SDS011;17263;48.160;11.452;2022-08-03T10:04:49;1.27;;;1.17;;
30472;SDS011;17263;48.160;11.452;2022-08-03T10:07:17;1.40;;;1.30;;
30472;SDS011;17263;48.160;11.452;2022-08-03T10:09:58;1.67;;;1.30;;
30472;SDS011;17263;48.160;11.452;2022-08-03T10:12:26;1.95;;;1.63;;
30472;SDS011;17263;48.160;11.452;2022-08-03T10:14:53;1.92;;;1.30;;
30472;SDS011;17263;48.160;11.452;2022-08-03T10:17:20;3.10;;;1.40;;
30472;SDS011;17263;48.160;11.452;2022-08-03T10:19:47;3.63;;;1.70;;
30472;SDS011;17263;48.160;11.452;2022-08-03T10:22:25;1.48;;;1.38;;
30472;SDS011;17263;48.160;11.452;2022-08-03T10:24:55;1.63;;;1.38;;
30472;SDS011;17263;48.160;11.452;2022-08-03T10:27:33;3.42;;;1.40;;
30472;SDS011;17263;48.160;11.452;2022-08-03T10:30:03;1.77;;;1.60;;
30472;SDS011;17263;48.160;11.452;2022-08-03T10:32:37;2.88;;;1.33;;
30472;SDS011;17263;48.160;11.452;2022-08-03T10:35:07;1.30;;;1.20;;
30472;SDS011;17263;48.160;11.452;2022-08-03T10:37:39;1.73;;;1.40;;
30472;SDS011;17263;48.160;11.452;2022-08-03T10:40:13;1.38;;;1.25;;
30472;SDS011;17263;48.160;11.452;2022-08-03T10:42:43;2.67;;;1.17;;
30472;SDS011;17263;48.160;11.452;2022-08-03T10:45:18;1.85;;;1.63;;
30472;SDS011;17263;48.160;11.452;2022-08-03T10:47:46;2.20;;;1.20;;
30472;SDS011;17263;48.160;11.452;2022-08-03T10:50:13;2.47;;;1.50;;
30472;SDS011;17263;48.160;11.452;2022-08-03T10:55:45;1.67;;;1.38;;
30472;SDS011;17263;48.160;11.452;2022-08-03T11:01:06;2.05;;;1.40;;
30472;SDS011;17263;48.160;11.452;2022-08-03T11:03:33;1.83;;;1.30;;
30472;SDS011;17263;48.160;11.452;2022-08-03T11:06:20;2.38;;;1.35;;
30472;SDS011;17263;48.160;11.452;2022-08-03T11:08:49;1.55;;;1.35;;
30472;SDS011;17263;48.160;11.452;2022-08-03T11:11:36;1.63;;;1.48;;
30472;SDS011;17263;48.160;11.452;2022-08-03T11:14:07;5.63;;;1.55;;
30472;SDS011;17263;48.160;11.452;2022-08-03T11:16:45;1.65;;;1.40;;
30472;SDS011;17263;48.160;11.452;2022-08-03T11:19:17;1.45;;;1.35;;
30472;SDS011;17263;48.160;11.452;2022-08-03T11:35:21;2.47;;;1.70;;
30472;SDS011;17263;48.160;11.452;2022-08-03T11:43:05;1.92;;;1.45;;
30472;SDS011;17263;48.160;11.452;2022-08-03T11:45:32;2.10;;;1.30;;
30472;SDS011;17263;48.160;11.452;2022-08-03T11:48:01;1.90;;;1.38;;
30472;SDS011;17263;48.160;11.452;2022-08-03T11:50:38;2.38;;;1.45;;
30472;SDS011;17263;48.160;11.452;2022-08-03T11:53:04;1.77;;;1.30;;
30472;SDS011;17263;48.160;11.452;2022-08-03T11:55:31;3.08;;;1.30;;
30472;SDS011;17263;48.160;11.452;2022-08-03T11:57:58;1.70;;;1.45;;
30472;SDS011;17263;48.160;11.452;2022-08-03T12:00:25;2.28;;;1.50;;
30472;SDS011;17263;48.160;11.452;2022-08-03T12:02:55;2.08;;;1.35;;
30472;SDS011;17263;48.160;11.452;2022-08-03T12:05:56;2.03;;;1.40;;
30472;SDS011;17263;48.160;11.452;2022-08-03T12:08:17;1.73;;;1.45;;
30472;SDS011;17263;48.160;11.452;2022-08-03T12:10:53;1.83;;;1.48;;
30472;SDS011;17263;48.160;11.452;2022-08-03T12:13:21;1.42;;;1.02;;
30472;SDS011;17263;48.160;11.452;2022-08-03T12:15:51;2.20;;;1.30;;
30472;SDS011;17263;48.160;11.452;2022-08-03T12:18:20;1.38;;;1.27;;
30472;SDS011;17263;48.160;11.452;2022-08-03T12:20:48;1.83;;;1.17;;
30472;SDS011;17263;48.160;11.452;2022-08-03T12:23:16;4.15;;;1.48;;
30472;SDS011;17263;48.160;11.452;2022-08-03T12:25:43;1.38;;;1.17;;
30472;SDS011;17263;48.160;11.452;2022-08-03T12:28:12;1.65;;;1.30;;
30472;SDS011;17263;48.160;11.452;2022-08-03T12:30:49;3.47;;;1.40;;
30472;SDS011;17263;48.160;11.452;2022-08-03T12:33:23;1.50;;;1.40;;
30472;SDS011;17263;48.160;11.452;2022-08-03T12:38:33;2.75;;;1.40;;
30472;SDS011;17263;48.160;11.452;2022-08-03T12:41:05;4.10;;;1.30;;
30472;SDS011;17263;48.160;11.452;2022-08-03T12:43:33;1.50;;;1.40;;
30472;SDS011;17263;48.160;11.452;2022-08-03T12:46:06;1.95;;;1.40;;
30472;SDS011;17263;48.160;11.452;2022-08-03T12:48:36;1.30;;;1.20;;
30472;SDS011;17263;48.160;11.452;2022-08-03T12:51:31;2.90;;;1.40;;
30472;SDS011;17263;48.160;11.452;2022-08-03T12:53:59;2.53;;;1.35;;
30472;SDS011;17263;48.160;11.452;2022-08-03T12:56:26;1.45;;;1.35;;
30472;SDS011;17263;48.160;11.452;2022-08-03T12:58:52;1.92;;;1.20;;
30472;SDS011;17263;48.160;11.452;2022-08-03T13:01:18;1.73;;;1.23;;
30472;SDS011;17263;48.160;11.452;2022-08-03T13:03:47;1.85;;;1.33;;
30472;SDS011;17263;48.160;11.452;2022-08-03T13:06:15;1.30;;;1.20;;
30472;SDS011;17263;48.160;11.452;2022-08-03T13:08:48;2.50;;;1.27;;
30472;SDS011;17263;48.160;11.452;2022-08-03T13:11:26;1.75;;;1.40;;
30472;SDS011;17263;48.160;11.452;2022-08-03T13:13:53;1.75;;;1.48;;
30472;SDS011;17263;48.160;11.452;2022-08-03T13:16:20;1.92;;;1.33;;
30472;SDS011;17263;48.160;11.452;2022-08-03T13:18:47;1.27;;;1.10;;
30472;SDS011;17263;48.160;11.452;2022-08-03T13:21:14;1.48;;;1.38;;
30472;SDS011;17263;48.160;11.452;2022-08-03T13:23:41;2.22;;;1.27;;
30472;SDS011;17263;48.160;11.452;2022-08-03T13:26:08;1.30;;;1.20;;
30472;SDS011;17263;48.160;11.452;2022-08-03T13:28:35;1.83;;;1.60;;
30472;SDS011;17263;48.160;11.452;2022-08-03T13:31:01;3.75;;;1.40;;
30472;SDS011;17263;48.160;11.452;2022-08-03T13:33:27;1.13;;;1.05;;
30472;SDS011;17263;48.160;11.452;2022-08-03T13:35:53;1.50;;;1.40;;
30472;SDS011;17263;48.160;11.452;2022-08-03T13:38:19;1.30;;;1.20;;
30472;SDS011;17263;48.160;11.452;2022-08-03T13:40:46;1.60;;;1.30;;
30472;SDS011;17263;48.160;11.452;2022-08-03T13:43:12;2.20;;;1.50;;
30472;SDS011;17263;48.160;11.452;2022-08-03T13:45:38;1.70;;;1.45;;
30472;SDS011;17263;48.160;11.452;2022-08-03T13:48:04;1.65;;;1.48;;
30472;SDS011;17263;48.160;11.452;2022-08-03T13:50:30;1.30;;;1.15;;
30472;SDS011;17263;48.160;11.452;2022-08-03T13:52:56;1.35;;;1.15;;
30472;SDS011;17263;48.160;11.452;2022-08-03T13:55:22;1.30;;;1.20;;
30472;SDS011;17263;48.160;11.452;2022-08-03T13:57:49;1.45;;;1.10;;
30472;SDS011;17263;48.160;11.452;2022-08-03T14:00:15;1.95;;;1.35;;
30472;SDS011;17263;48.160;11.452;2022-08-03T14:02:43;2.20;;;1.40;;
30472;SDS011;17263;48.160;11.452;2022-08-03T14:05:09;1.85;;;1.15;;
30472;SDS011;17263;48.160;11.452;2022-08-03T14:07:35;1.45;;;1.30;;
30472;SDS011;17263;48.160;11.452;2022-08-03T14:10:01;1.33;;;1.00;;
30472;SDS011;17263;48.160;11.452;2022-08-03T14:12:28;1.90;;;1.40;;
30472;SDS011;17263;48.160;11.452;2022-08-03T14:14:54;2.45;;;1.48;;
30472;SDS011;17263;48.160;11.452;2022-08-03T14:17:20;1.35;;;1.25;;
30472;SDS011;17263;48.160;11.452;2022-08-03T14:19:46;2.35;;;1.30;;
30472;SDS011;17263;48.160;11.452;2022-08-03T14:22:12;1.90;;;1.50;;
30472;SDS011;17263;48.160;11.452;2022-08-03T14:24:38;2.05;;;1.30;;
30472;SDS011;17263;48.160;11.452;2022-08-03T14:27:04;2.00;;;1.30;;
30472;SDS011;17263;48.160;11.452;2022-08-03T14:29:30;1.92;;;1.50;;
30472;SDS011;17263;48.160;11.452;2022-08-03T14:31:56;1.63;;;1.35;;
30472;SDS011;17263;48.160;11.452;2022-08-03T14:34:22;1.60;;;1.40;;
30472;SDS011;17263;48.160;11.452;2022-08-03T14:36:48;1.33;;;1.15;;
30472;SDS011;17263;48.160;11.452;2022-08-03T14:39:14;1.60;;;1.40;;
30472;SDS011;17263;48.160;11.452;2022-08-03T14:41:41;3.03;;;1.58;;
30472;SDS011;17263;48.160;11.452;2022-08-03T14:44:07;1.50;;;1.40;;
30472;SDS011;17263;48.160;11.452;2022-08-03T14:46:33;1.88;;;1.50;;
30472;SDS011;17263;48.160;11.452;2022-08-03T14:48:59;2.42;;;1.38;;
30472;SDS011;17263;48.160;11.452;2022-08-03T14:51:25;1.70;;;1.27;;
30472;SDS011;17263;48.160;11.452;2022-08-03T14:53:51;1.52;;;1.23;;
30472;SDS011;17263;48.160;11.452;2022-08-03T14:56:17;1.35;;;1.25;;
30472;SDS011;17263;48.160;11.452;2022-08-03T14:58:43;4.80;;;1.40;;
30472;SDS011;17263;48.160;11.452;2022-08-03T15:01:09;1.50;;;1.40;;
30472;SDS011;17263;48.160;11.452;2022-08-03T15:03:35;1.48;;;1.15;;
30472;SDS011;17263;48.160;11.452;2022-08-03T15:06:01;1.88;;;1.40;;
30472;SDS011;17263;48.160;11.452;2022-08-03T15:08:27;1.85;;;1.25;;
30472;SDS011;17263;48.160;11.452;2022-08-03T15:10:54;1.30;;;1.20;;
30472;SDS011;17263;48.160;11.452;2022-08-03T15:13:20;2.65;;;1.40;;
30472;SDS011;17263;48.160;11.452;2022-08-03T15:15:47;2.83;;;1.50;;
30472;SDS011;17263;48.160;11.452;2022-08-03T15:18:14;1.42;;;1.25;;